createdAt,value
2022-08-31T00:01:43.626Z,28.39
2022-08-31T00:04:13.232Z,28.67
2022-08-31T00:06:40.414Z,28.46
2022-08-31T00:09:07.867Z,28.39
2022-08-31T00:11:37.930Z,28.42
2022-08-31T00:14:06.944Z,28.72
2022-08-31T00:16:41.331Z,28.87
2022-08-31T00:19:08.801Z,28.82
2022-08-31T00:21:35.980Z,29.00
2022-08-31T00:24:03.529Z,28.76
2022-08-31T00:26:30.739Z,28.74
2022-08-31T00:28:58.188Z,28.94
2022-08-31T00:31:27.904Z,28.77
2022-08-31T00:33:56.609Z,28.72
2022-08-31T00:36:24.775Z,28.80
2022-08-31T00:38:52.576Z,28.85
2022-08-31T00:41:21.145Z,28.99
2022-08-31T00:43:48.310Z,29.04
2022-08-31T00:46:24.491Z,29.02
2022-08-31T00:48:56.496Z,28.93
2022-08-31T00:51:24.081Z,28.94
2022-08-31T00:53:51.280Z,28.95
2022-08-31T00:56:18.579Z,29.01
2022-08-31T00:58:46.407Z,28.99
2022-08-31T01:01:22.202Z,28.88
2022-08-31T01:03:49.685Z,28.92
2022-08-31T01:06:17.837Z,28.75
2022-08-31T01:08:45.313Z,28.80
2022-08-31T01:11:13.024Z,28.94
2022-08-31T01:13:40.311Z,28.88
2022-08-31T01:16:09.125Z,28.74
2022-08-31T01:18:36.690Z,28.78
2022-08-31T01:21:03.864Z,28.84
2022-08-31T01:23:35.746Z,28.80
2022-08-31T01:26:03.507Z,28.77
2022-08-31T01:28:30.691Z,28.70
2022-08-31T01:30:59.790Z,28.68
2022-08-31T01:33:27.648Z,28.57
2022-08-31T01:35:54.816Z,28.34
2022-08-31T01:38:22.073Z,28.49
2022-08-31T01:40:50.988Z,28.62
2022-08-31T01:43:18.301Z,28.59
2022-08-31T01:45:45.668Z,28.53
2022-08-31T01:48:13.115Z,28.66
2022-08-31T01:50:40.432Z,28.65
2022-08-31T01:53:07.661Z,28.53
2022-08-31T01:55:35.187Z,28.48
2022-08-31T01:58:02.669Z,28.41
2022-08-31T02:00:32.035Z,28.45
2022-08-31T02:03:00.221Z,28.61
2022-08-31T02:05:28.594Z,28.51
2022-08-31T02:07:56.267Z,28.46
2022-08-31T02:10:23.950Z,28.20
2022-08-31T02:12:51.151Z,28.24
2022-08-31T02:15:18.470Z,28.17
2022-08-31T02:17:46.910Z,28.30
2022-08-31T02:20:20.239Z,28.24
2022-08-31T02:22:48.748Z,28.12
2022-08-31T02:25:16.674Z,28.26
2022-08-31T02:27:44.086Z,28.25
2022-08-31T02:30:14.145Z,28.18
2022-08-31T02:32:41.686Z,28.14
2022-08-31T02:35:09.667Z,28.09
2022-08-31T02:37:36.958Z,27.98
2022-08-31T02:40:07.356Z,28.01
2022-08-31T02:42:52.315Z,27.74
2022-08-31T02:45:21.849Z,27.68
2022-08-31T02:47:49.134Z,27.61
2022-08-31T02:50:16.578Z,27.59
2022-08-31T02:52:45.472Z,27.68
2022-08-31T02:55:12.864Z,27.74
2022-08-31T02:57:40.094Z,27.83
2022-08-31T03:00:08.173Z,27.77
2022-08-31T03:02:35.452Z,27.70
2022-08-31T03:05:03.487Z,27.52
2022-08-31T03:07:32.484Z,27.60
2022-08-31T03:10:02.606Z,27.56
2022-08-31T03:12:29.774Z,27.64
2022-08-31T03:14:57.230Z,27.48
2022-08-31T03:17:24.559Z,27.60
2022-08-31T03:19:51.786Z,27.48
2022-08-31T03:22:19.234Z,27.93
2022-08-31T03:24:48.330Z,27.75
2022-08-31T03:27:16.205Z,27.46
2022-08-31T03:29:44.511Z,27.54
2022-08-31T03:32:12.411Z,27.50
2022-08-31T03:34:41.543Z,27.38
2022-08-31T03:37:09.007Z,27.44
2022-08-31T03:39:36.200Z,27.44
2022-08-31T03:42:03.690Z,27.42
2022-08-31T03:44:33.173Z,27.58
2022-08-31T03:47:00.840Z,27.33
2022-08-31T03:49:28.025Z,27.49
2022-08-31T03:51:56.808Z,27.41
2022-08-31T03:54:24.371Z,27.51
2022-08-31T03:56:51.662Z,27.32
2022-08-31T03:59:20.887Z,27.30
2022-08-31T04:01:56.305Z,27.30
2022-08-31T04:04:42.559Z,27.27
2022-08-31T04:07:12.790Z,27.30
2022-08-31T04:09:43.699Z,27.31
2022-08-31T04:12:12.980Z,27.30
2022-08-31T04:14:42.233Z,27.36
2022-08-31T04:17:12.543Z,27.32
2022-08-31T04:19:41.514Z,27.38
2022-08-31T04:22:13.200Z,27.22
2022-08-31T04:24:41.293Z,27.08
2022-08-31T04:27:08.505Z,27.23
2022-08-31T04:29:35.836Z,27.31
2022-08-31T04:32:03.702Z,27.25
2022-08-31T04:34:30.889Z,27.47
2022-08-31T04:36:58.112Z,27.60
2022-08-31T04:39:25.692Z,27.56
2022-08-31T04:41:54.247Z,27.59
2022-08-31T04:44:21.952Z,27.57
2022-08-31T04:46:51.559Z,27.72
2022-08-31T04:49:19.015Z,28.17
2022-08-31T04:51:46.275Z,28.03
2022-08-31T04:54:14.123Z,27.98
2022-08-31T04:56:43.414Z,28.76
2022-08-31T04:59:12.357Z,28.84
2022-08-31T05:01:44.746Z,28.67
2022-08-31T05:04:14.941Z,29.34
2022-08-31T05:06:43.484Z,29.23
2022-08-31T05:09:12.773Z,29.95
2022-08-31T05:11:41.694Z,29.43
2022-08-31T05:14:09.556Z,29.98
2022-08-31T05:16:37.686Z,29.89
2022-08-31T05:19:05.149Z,28.53
2022-08-31T05:21:33.995Z,29.66
2022-08-31T05:24:11.501Z,28.79
2022-08-31T05:26:42.127Z,28.60
2022-08-31T05:29:10.005Z,27.98
2022-08-31T05:31:37.506Z,28.45
2022-08-31T05:34:05.222Z,26.94
2022-08-31T05:36:33.378Z,27.97
2022-08-31T05:39:01.487Z,28.75
2022-08-31T05:41:29.512Z,28.18
2022-08-31T05:43:56.844Z,27.50
2022-08-31T05:46:24.224Z,28.09
2022-08-31T05:48:51.878Z,27.16
2022-08-31T05:51:19.152Z,26.60
2022-08-31T05:53:47.131Z,27.25
2022-08-31T05:56:20.784Z,26.93
2022-08-31T05:58:49.054Z,26.80
2022-08-31T06:01:19.712Z,26.28
2022-08-31T06:03:48.699Z,26.34
2022-08-31T06:06:16.126Z,26.27
2022-08-31T06:08:43.502Z,26.91
2022-08-31T06:11:17.716Z,27.20
2022-08-31T06:13:50.523Z,26.91
2022-08-31T06:16:18.318Z,26.85
2022-08-31T06:18:50.655Z,26.64
2022-08-31T06:21:21.060Z,26.93
2022-08-31T06:23:49.793Z,26.44
2022-08-31T06:26:18.714Z,26.65
2022-08-31T06:28:48.575Z,27.83
2022-08-31T06:31:28.378Z,28.22
2022-08-31T06:33:56.469Z,27.46
2022-08-31T06:36:28.275Z,28.33
2022-08-31T06:38:56.996Z,27.69
2022-08-31T06:41:27.166Z,27.86
2022-08-31T06:43:55.072Z,26.88
2022-08-31T06:46:23.495Z,27.18
2022-08-31T06:48:55.482Z,26.71
2022-08-31T06:51:23.079Z,27.68
2022-08-31T06:53:50.297Z,27.91
2022-08-31T06:56:21.337Z,26.72
2022-08-31T06:58:53.857Z,27.92
2022-08-31T07:01:34.862Z,28.16
2022-08-31T07:04:05.718Z,26.91
2022-08-31T07:06:35.456Z,27.38
2022-08-31T07:09:04.402Z,27.94
2022-08-31T07:11:35.513Z,28.71
2022-08-31T07:14:03.682Z,28.53
2022-08-31T07:16:31.476Z,28.20
2022-08-31T07:19:00.508Z,28.07
2022-08-31T07:21:28.895Z,28.59
2022-08-31T07:23:57.417Z,28.03
2022-08-31T07:26:27.826Z,29.46
2022-08-31T07:28:55.899Z,29.00
2022-08-31T07:31:26.599Z,29.91
2022-08-31T07:33:56.094Z,30.49
2022-08-31T07:36:24.509Z,29.85
2022-08-31T07:39:11.148Z,29.92
2022-08-31T07:42:02.290Z,29.07
2022-08-31T07:44:30.201Z,29.93
2022-08-31T07:46:58.170Z,30.57
2022-08-31T07:49:26.360Z,30.54
2022-08-31T07:51:55.945Z,30.97
2022-08-31T07:54:27.297Z,30.13
2022-08-31T07:57:03.572Z,30.86
2022-08-31T07:59:33.004Z,30.94
2022-08-31T08:02:02.231Z,30.30
2022-08-31T08:04:30.276Z,30.93
2022-08-31T08:06:58.911Z,31.11
2022-08-31T08:09:29.001Z,30.74
2022-08-31T08:12:01.177Z,29.55
2022-08-31T08:14:30.274Z,30.26
2022-08-31T08:16:58.905Z,30.80
2022-08-31T08:19:27.908Z,30.85
2022-08-31T08:21:55.817Z,31.29
2022-08-31T08:24:24.191Z,30.69
2022-08-31T08:26:54.652Z,30.30
2022-08-31T08:29:23.566Z,30.58
2022-08-31T08:31:56.313Z,30.97
2022-08-31T08:34:32.107Z,30.73
2022-08-31T08:37:00.876Z,30.90
2022-08-31T08:39:28.162Z,30.82
2022-08-31T08:41:56.206Z,30.75
2022-08-31T08:44:24.187Z,31.05
2022-08-31T08:46:56.431Z,30.76
2022-08-31T08:49:28.447Z,29.97
2022-08-31T08:51:56.720Z,30.74
2022-08-31T08:54:46.333Z,30.79
2022-08-31T08:57:15.147Z,29.94
2022-08-31T08:59:46.920Z,30.65
2022-08-31T09:02:19.932Z,30.99
2022-08-31T09:04:59.931Z,30.99
2022-08-31T09:07:44.422Z,30.82
2022-08-31T09:10:18.636Z,30.53
2022-08-31T09:12:52.396Z,29.92
2022-08-31T09:15:21.957Z,30.05
2022-08-31T09:18:13.292Z,30.16
2022-08-31T09:20:41.275Z,31.03
2022-08-31T09:23:08.776Z,31.46
2022-08-31T09:25:47.805Z,31.19
2022-08-31T09:28:17.074Z,30.91
2022-08-31T09:30:44.626Z,31.12
2022-08-31T09:33:17.758Z,30.69
2022-08-31T09:35:45.519Z,30.86
2022-08-31T09:38:25.444Z,30.27
2022-08-31T09:40:53.133Z,30.48
2022-08-31T09:43:25.217Z,30.50
2022-08-31T09:45:55.636Z,31.23
2022-08-31T09:48:39.852Z,30.61
2022-08-31T09:51:07.324Z,30.83
2022-08-31T09:54:00.494Z,30.45
2022-08-31T09:56:29.437Z,30.82
2022-08-31T09:59:01.651Z,31.15
2022-08-31T10:01:45.201Z,31.63
2022-08-31T10:04:18.104Z,31.30
2022-08-31T10:07:08.576Z,31.72
2022-08-31T10:09:37.655Z,31.85
2022-08-31T10:12:06.630Z,30.62
2022-08-31T10:14:57.199Z,30.76
2022-08-31T10:17:32.048Z,31.82
2022-08-31T10:20:08.368Z,31.20
2022-08-31T10:22:41.797Z,31.92
2022-08-31T10:25:17.385Z,32.21
2022-08-31T10:27:49.003Z,32.12
2022-08-31T10:30:25.310Z,32.15
2022-08-31T10:32:57.367Z,31.71
2022-08-31T10:35:45.817Z,32.45
2022-08-31T10:38:19.952Z,31.73
2022-08-31T10:40:50.658Z,32.17
2022-08-31T10:43:21.574Z,31.36
2022-08-31T10:45:51.870Z,32.03
2022-08-31T10:48:24.708Z,31.69
2022-08-31T10:50:51.848Z,31.81
2022-08-31T10:53:22.522Z,31.61
2022-08-31T10:55:55.298Z,31.95
2022-08-31T10:58:22.936Z,32.12
2022-08-31T11:00:52.086Z,32.19
2022-08-31T11:03:37.957Z,31.42
2022-08-31T11:06:25.901Z,31.72
2022-08-31T11:08:58.650Z,31.97
2022-08-31T11:11:57.521Z,31.65
2022-08-31T11:14:33.347Z,31.89
2022-08-31T11:17:12.191Z,32.46
2022-08-31T11:19:56.721Z,32.60
2022-08-31T11:22:28.660Z,32.75
2022-08-31T11:25:02.256Z,32.74
2022-08-31T11:27:35.902Z,33.28
2022-08-31T11:30:08.368Z,33.47
2022-08-31T11:32:47.406Z,33.32
2022-08-31T11:35:17.944Z,32.76
2022-08-31T11:37:50.965Z,32.70
2022-08-31T11:40:46.150Z,32.60
2022-08-31T11:43:14.019Z,32.86
2022-08-31T11:45:42.195Z,32.32
2022-08-31T11:48:29.944Z,32.93
2022-08-31T11:51:03.383Z,33.03
2022-08-31T11:53:31.806Z,33.11
2022-08-31T11:56:00.514Z,33.37
2022-08-31T11:58:31.854Z,33.42
2022-08-31T12:00:59.351Z,33.78
2022-08-31T12:03:39.165Z,33.16
2022-08-31T12:06:10.996Z,32.62
2022-08-31T12:08:52.761Z,32.44
2022-08-31T12:11:35.229Z,31.97
2022-08-31T12:14:08.745Z,32.20
2022-08-31T12:16:39.409Z,32.34
2022-08-31T12:19:06.931Z,32.99
2022-08-31T12:22:13.638Z,32.96
2022-08-31T12:24:54.741Z,32.92
2022-08-31T12:27:26.794Z,33.38
2022-08-31T12:30:07.992Z,33.74
2022-08-31T12:32:38.253Z,33.81
2022-08-31T12:35:05.694Z,33.78
2022-08-31T12:37:34.176Z,33.84
2022-08-31T12:40:08.565Z,33.67
2022-08-31T12:42:39.227Z,33.95
2022-08-31T12:45:07.368Z,33.79
2022-08-31T12:47:37.966Z,33.60
2022-08-31T12:50:18.081Z,33.51
2022-08-31T12:52:48.434Z,33.61
2022-08-31T12:55:15.845Z,33.80
2022-08-31T12:57:42.975Z,34.27
2022-08-31T13:00:15.905Z,33.69
2022-08-31T13:02:44.599Z,32.74
2022-08-31T13:05:16.889Z,33.48
2022-08-31T13:07:44.339Z,33.68
2022-08-31T13:10:13.042Z,33.67
2022-08-31T13:12:40.337Z,33.35
2022-08-31T13:15:20.965Z,33.71
2022-08-31T13:17:48.148Z,33.95
2022-08-31T13:20:17.925Z,33.70
2022-08-31T13:22:49.435Z,33.62
2022-08-31T13:25:19.328Z,33.75
2022-08-31T13:27:47.765Z,33.38
2022-08-31T13:30:19.201Z,32.37
2022-08-31T13:32:49.784Z,32.90
2022-08-31T13:35:25.898Z,33.59
2022-08-31T13:38:05.021Z,33.80
2022-08-31T13:40:34.379Z,33.83
2022-08-31T13:43:01.847Z,33.45
2022-08-31T13:45:30.570Z,33.90
2022-08-31T13:47:58.203Z,34.52
2022-08-31T13:50:28.669Z,33.78
2022-08-31T13:53:22.977Z,32.73
2022-08-31T13:55:47.538Z,32.14
2022-08-31T13:58:31.011Z,33.04
2022-08-31T14:01:18.830Z,32.65
2022-08-31T14:03:58.184Z,33.26
2022-08-31T14:06:29.011Z,33.60
2022-08-31T14:09:05.165Z,32.46
2022-08-31T14:11:33.928Z,33.30
2022-08-31T14:14:07.468Z,33.60
2022-08-31T14:16:36.307Z,33.75
2022-08-31T14:19:04.389Z,33.82
2022-08-31T14:21:33.565Z,32.99
2022-08-31T14:24:02.079Z,32.59
2022-08-31T14:26:31.586Z,33.58
2022-08-31T14:29:02.482Z,34.01
2022-08-31T14:31:30.641Z,33.20
2022-08-31T14:34:00.139Z,32.76
2022-08-31T14:36:27.891Z,33.78
2022-08-31T14:38:55.379Z,33.65
2022-08-31T14:41:27.788Z,33.43
2022-08-31T14:43:55.953Z,33.67
2022-08-31T14:46:28.574Z,32.52
2022-08-31T14:48:58.788Z,33.22
2022-08-31T14:51:27.319Z,33.40
2022-08-31T14:53:57.473Z,33.70
2022-08-31T14:56:28.501Z,33.98
2022-08-31T14:58:56.470Z,33.73
2022-08-31T15:01:24.023Z,33.70
2022-08-31T15:03:51.516Z,33.54
2022-08-31T15:06:20.710Z,33.18
2022-08-31T15:08:48.387Z,33.21
2022-08-31T15:11:15.824Z,33.49
2022-08-31T15:13:43.035Z,33.72
2022-08-31T15:16:13.262Z,33.64
2022-08-31T15:18:42.468Z,33.82
2022-08-31T15:21:10.514Z,33.92
2022-08-31T15:23:42.001Z,34.03
2022-08-31T15:26:11.038Z,33.93
2022-08-31T15:28:41.895Z,32.51
2022-08-31T15:31:11.442Z,33.40
2022-08-31T15:33:39.985Z,33.63
2022-08-31T15:36:09.158Z,33.67
2022-08-31T15:38:37.585Z,33.87
2022-08-31T15:41:04.942Z,34.16
2022-08-31T15:43:34.045Z,34.46
2022-08-31T15:46:02.157Z,34.50
2022-08-31T15:48:47.443Z,34.26
2022-08-31T15:51:21.833Z,34.31
2022-08-31T15:54:11.658Z,34.24
2022-08-31T15:56:40.035Z,33.73
2022-08-31T15:59:08.654Z,33.61
2022-08-31T16:01:35.933Z,33.65
2022-08-31T16:04:04.310Z,33.58
2022-08-31T16:06:32.754Z,33.25
2022-08-31T16:09:00.030Z,33.36
2022-08-31T16:11:28.920Z,33.15
2022-08-31T16:14:00.948Z,33.04
2022-08-31T16:16:31.038Z,33.26
2022-08-31T16:18:59.217Z,33.23
2022-08-31T16:21:26.891Z,32.91
2022-08-31T16:24:00.769Z,32.93
2022-08-31T16:26:29.229Z,32.90
2022-08-31T16:28:56.910Z,32.85
2022-08-31T16:31:24.674Z,32.80
2022-08-31T16:33:55.319Z,32.83
2022-08-31T16:36:24.124Z,32.71
2022-08-31T16:38:51.717Z,33.07
2022-08-31T16:41:19.120Z,32.92
2022-08-31T16:44:09.570Z,32.83
2022-08-31T16:46:40.826Z,33.04
2022-08-31T16:49:28.083Z,33.36
2022-08-31T16:51:55.535Z,33.11
2022-08-31T16:54:23.781Z,32.96
2022-08-31T16:56:52.243Z,33.38
2022-08-31T16:59:19.577Z,33.23
2022-08-31T17:01:47.064Z,32.60
2022-08-31T17:04:29.275Z,31.93
2022-08-31T17:07:03.306Z,32.30
2022-08-31T17:09:30.549Z,32.28
2022-08-31T17:12:00.191Z,32.39
2022-08-31T17:14:33.958Z,32.35
2022-08-31T17:17:05.726Z,31.73
2022-08-31T17:19:33.791Z,31.95
2022-08-31T17:22:03.327Z,32.40
2022-08-31T17:24:32.091Z,32.63
2022-08-31T17:27:01.283Z,32.39
2022-08-31T17:29:32.180Z,32.08
2022-08-31T17:32:03.060Z,32.14
2022-08-31T17:34:30.961Z,32.23
2022-08-31T17:36:59.785Z,32.69
2022-08-31T17:39:27.346Z,32.84
2022-08-31T17:41:55.609Z,33.00
2022-08-31T17:44:29.100Z,33.04
2022-08-31T17:46:57.321Z,33.09
2022-08-31T17:49:25.111Z,32.80
2022-08-31T17:51:52.592Z,33.16
2022-08-31T17:54:21.718Z,33.17
2022-08-31T17:56:53.526Z,32.92
2022-08-31T17:59:22.807Z,33.00
2022-08-31T18:01:51.108Z,32.77
2022-08-31T18:04:18.852Z,32.88
2022-08-31T18:06:46.543Z,33.12
2022-08-31T18:09:14.530Z,33.16
2022-08-31T18:11:46.299Z,32.83
2022-08-31T18:14:13.763Z,33.06
2022-08-31T18:16:41.760Z,33.12
2022-08-31T18:19:09.323Z,33.23
2022-08-31T18:21:36.921Z,33.25
2022-08-31T18:24:06.102Z,32.92
2022-08-31T18:26:34.722Z,33.12
2022-08-31T18:29:02.198Z,32.99
2022-08-31T18:31:30.708Z,33.20
2022-08-31T18:34:01.911Z,33.12
2022-08-31T18:36:29.286Z,32.92
2022-08-31T18:38:57.396Z,32.97
2022-08-31T18:41:44.336Z,32.89
2022-08-31T18:44:30.345Z,32.94
2022-08-31T18:46:58.260Z,32.89
2022-08-31T18:49:28.237Z,32.62
2022-08-31T18:51:57.121Z,32.66
2022-08-31T18:54:24.930Z,32.55
2022-08-31T18:56:52.153Z,32.70
2022-08-31T18:59:19.667Z,32.70
2022-08-31T19:01:47.602Z,32.74
2022-08-31T19:04:17.637Z,32.59
2022-08-31T19:06:48.913Z,32.65
2022-08-31T19:09:16.453Z,32.48
2022-08-31T19:11:51.322Z,31.38
2022-08-31T19:14:19.962Z,30.41
2022-08-31T19:16:51.365Z,30.09
2022-08-31T19:19:27.514Z,30.39
2022-08-31T19:21:58.136Z,30.24
2022-08-31T19:24:26.108Z,29.31
2022-08-31T19:26:54.478Z,29.21
2022-08-31T19:29:25.402Z,28.66
2022-08-31T19:31:54.086Z,28.57
2022-08-31T19:34:23.207Z,28.21
2022-08-31T19:36:54.483Z,28.46
2022-08-31T19:39:25.215Z,27.40
2022-08-31T19:41:55.917Z,27.08
2022-08-31T19:44:26.710Z,27.55
2022-08-31T19:46:54.820Z,27.57
2022-08-31T19:49:23.160Z,27.29
2022-08-31T19:51:53.003Z,27.45
2022-08-31T19:54:21.033Z,27.16
2022-08-31T19:56:48.590Z,27.29
2022-08-31T19:59:20.241Z,26.31
2022-08-31T20:01:48.501Z,26.20
2022-08-31T20:04:17.146Z,26.28
2022-08-31T20:06:45.349Z,26.36
2022-08-31T20:09:12.895Z,25.90
2022-08-31T20:11:40.440Z,26.26
2022-08-31T20:14:07.767Z,26.58
2022-08-31T20:16:36.422Z,26.07
2022-08-31T20:19:05.861Z,26.37
2022-08-31T20:21:34.830Z,26.52
2022-08-31T20:24:04.063Z,25.91
2022-08-31T20:26:36.116Z,25.93
2022-08-31T20:29:05.911Z,27.23
2022-08-31T20:31:33.521Z,27.15
2022-08-31T20:34:00.752Z,26.36
2022-08-31T20:36:29.147Z,26.43
2022-08-31T20:38:57.694Z,25.93
2022-08-31T20:41:25.533Z,26.98
2022-08-31T20:43:52.735Z,25.68
2022-08-31T20:46:38.736Z,26.65
2022-08-31T20:49:25.715Z,25.71
2022-08-31T20:51:55.033Z,25.81
2022-08-31T20:54:23.175Z,25.59
2022-08-31T20:56:51.237Z,26.14
2022-08-31T20:59:20.930Z,25.65
2022-08-31T21:01:50.483Z,26.28
2022-08-31T21:04:18.323Z,25.79
2022-08-31T21:06:46.014Z,25.99
2022-08-31T21:09:13.567Z,25.09
2022-08-31T21:11:42.245Z,26.78
2022-08-31T21:14:10.688Z,26.90
2022-08-31T21:16:40.968Z,27.46
2022-08-31T21:19:09.693Z,27.60
2022-08-31T21:21:37.148Z,27.79
2022-08-31T21:24:04.425Z,28.66
2022-08-31T21:26:31.588Z,29.01
2022-08-31T21:28:59.834Z,29.39
2022-08-31T21:31:28.997Z,29.56
2022-08-31T21:33:58.120Z,28.71
2022-08-31T21:36:26.733Z,28.85
2022-08-31T21:38:54.686Z,28.72
2022-08-31T21:41:22.899Z,28.65
2022-08-31T21:43:50.366Z,29.22
2022-08-31T21:46:21.431Z,28.49
2022-08-31T21:48:49.092Z,28.31
2022-08-31T21:51:25.693Z,28.33
2022-08-31T21:53:54.452Z,28.43
2022-08-31T21:56:22.506Z,28.29
2022-08-31T21:58:50.099Z,28.01
2022-08-31T22:01:20.184Z,28.51
2022-08-31T22:03:48.221Z,28.83
2022-08-31T22:06:22.194Z,28.81
2022-08-31T22:08:55.539Z,28.85
2022-08-31T22:11:23.605Z,28.88
2022-08-31T22:13:54.476Z,29.36
2022-08-31T22:16:22.004Z,28.99
2022-08-31T22:19:06.401Z,28.83
2022-08-31T22:21:35.033Z,29.19
2022-08-31T22:24:04.472Z,28.99
2022-08-31T22:26:34.080Z,29.16
2022-08-31T22:29:01.547Z,29.12
2022-08-31T22:31:28.859Z,29.20
2022-08-31T22:33:56.246Z,29.49
2022-08-31T22:36:31.375Z,29.54
2022-08-31T22:39:00.505Z,28.30
2022-08-31T22:41:27.957Z,28.77
2022-08-31T22:43:55.742Z,29.27
2022-08-31T22:46:23.316Z,29.09
2022-08-31T22:48:51.221Z,28.70
2022-08-31T22:51:18.433Z,28.09
2022-08-31T22:53:46.283Z,28.36
2022-08-31T22:56:16.772Z,28.94
2022-08-31T22:58:44.238Z,28.51
2022-08-31T23:01:22.874Z,28.20
2022-08-31T23:03:51.338Z,27.71
2022-08-31T23:06:20.189Z,27.92
2022-08-31T23:08:47.766Z,27.62
2022-08-31T23:11:19.104Z,26.57
2022-08-31T23:13:55.542Z,26.29
2022-08-31T23:16:30.452Z,26.70
2022-08-31T23:18:59.111Z,26.56
2022-08-31T23:21:27.663Z,26.16
2022-08-31T23:23:55.417Z,26.33
2022-08-31T23:26:25.380Z,26.41
2022-08-31T23:28:53.576Z,26.46
2022-08-31T23:31:21.954Z,26.65
2022-08-31T23:33:53.549Z,26.96
2022-08-31T23:36:26.131Z,26.30
2022-08-31T23:38:54.798Z,26.42
2022-08-31T23:41:25.773Z,26.36
2022-08-31T23:43:56.762Z,25.70
2022-08-31T23:46:25.044Z,26.29
2022-08-31T23:48:53.264Z,26.67
2022-08-31T23:51:21.742Z,26.65
2022-08-31T23:53:53.996Z,26.61
2022-08-31T23:56:22.788Z,26.75
2022-08-31T23:58:49.986Z,27.08
